Wartburg, TN

5:55 PM EDT on October 01, 2016 (GMT -0400)
417 Riverview St | | Change Station

Elev 787 ft 35.98 °N, 84.56 °W | Updated 3 minutes ago

Overcast
Overcast
69.3 °F
Feels Like 69.3 °F
N
0.0
Wind Variable Wind from South

Today
High -- | Low -- °F
--% Chance of Precip.
Yesterday
High -- | Low -- °F
Precip. -- in
Pressure 30.05 in
Visibility 10.0 miles
Clouds Overcast 7000 ft
Dew Point 56 °F
Humidity 63%
Rainfall 0.00 in
Snow Depth Not available.
7:33 AM 7:21 PM
New Moon, 1% visible
METAR KOQT 012153Z AUTO 32003KT 10SM OVC070 23/11 A3006 RMK AO2 SLP175 T02280111
Pressure 30.05 in
Visibility 10.0 miles
Clouds Overcast 7000 ft
Dew Point 56 °F
Humidity 63%
Rainfall 0.00 in
Snow Depth Not available.
7:33 AM 7:21 PM
New Moon, 1% visible
METAR KOQT 012153Z AUTO 32003KT 10SM OVC070 23/11 A3006 RMK AO2 SLP175 T02280111

10-Day Weather Forecast

Almanac

Astronomy

Oct. 01, 2016 Rise Set
Actual Time
Civil Twilight
Nautical Twilight
Astronomical Twilight
Moon
Length of Visible Light
Length of Day
Tomorrow will be .
, % of the Moon is Illuminated

Today's Extremes

State Highs State Lows

Community

WunderPhotos

Upload Photos

1,943,027 photos uploaded!

WunderBlog® & News

Nearby

Air Quality

  Air Quality AQ Index Pollutant
Not available.

Snow Depth

Station Depth Elevation

Earthquake Activity

City Distance Mag. Time & Date
Minimum magnitude displayed is 2.5.

Coastal Water Temperatures

Place Temperature

Stations

Nearby Weather Stations

Station Location Temp. Windchill Dew Point Humidity Wind Precip. Elev Updated Type
                   

Watches & Warnings

There are currently no watches in effect.